sensor_id;sensor_type;location;lat;lon;timestamp;P1;durP1;ratioP1;P2;durP2;ratioP2
70838;SDS011;58464;52.298;4.852;2023-04-06T00:00:01;30.40;;;14.95;;
70838;SDS011;58464;52.298;4.852;2023-04-06T00:02:26;28.60;;;14.48;;
70838;SDS011;58464;52.298;4.852;2023-04-06T00:04:51;26.43;;;13.83;;
70838;SDS011;58464;52.298;4.852;2023-04-06T00:07:17;90.22;;;36.80;;
70838;SDS011;58464;52.298;4.852;2023-04-06T00:09:42;63.95;;;29.88;;
70838;SDS011;58464;52.298;4.852;2023-04-06T00:12:07;23.00;;;13.33;;
70838;SDS011;58464;52.298;4.852;2023-04-06T00:14:32;36.47;;;19.17;;
70838;SDS011;58464;52.298;4.852;2023-04-06T00:16:58;43.33;;;22.02;;
70838;SDS011;58464;52.298;4.852;2023-04-06T00:19:23;34.63;;;18.75;;
70838;SDS011;58464;52.298;4.852;2023-04-06T00:21:48;51.23;;;24.50;;
70838;SDS011;58464;52.298;4.852;2023-04-06T00:24:13;32.30;;;17.37;;
70838;SDS011;58464;52.298;4.852;2023-04-06T00:26:39;28.55;;;15.70;;
70838;SDS011;58464;52.298;4.852;2023-04-06T00:29:04;28.42;;;15.25;;
70838;SDS011;58464;52.298;4.852;2023-04-06T00:31:30;16.83;;;9.40;;
70838;SDS011;58464;52.298;4.852;2023-04-06T00:33:55;31.20;;;15.70;;
70838;SDS011;58464;52.298;4.852;2023-04-06T00:36:20;31.27;;;15.47;;
70838;SDS011;58464;52.298;4.852;2023-04-06T00:38:45;30.88;;;15.45;;
70838;SDS011;58464;52.298;4.852;2023-04-06T00:41:11;23.33;;;12.13;;
70838;SDS011;58464;52.298;4.852;2023-04-06T00:43:36;57.10;;;25.77;;
70838;SDS011;58464;52.298;4.852;2023-04-06T00:46:01;48.50;;;24.10;;
70838;SDS011;58464;52.298;4.852;2023-04-06T00:48:26;22.67;;;11.18;;
70838;SDS011;58464;52.298;4.852;2023-04-06T00:50:52;21.67;;;11.43;;
70838;SDS011;58464;52.298;4.852;2023-04-06T00:53:17;20.10;;;8.32;;
70838;SDS011;58464;52.298;4.852;2023-04-06T00:55:43;16.10;;;9.37;;
70838;SDS011;58464;52.298;4.852;2023-04-06T00:58:08;18.40;;;9.70;;
70838;SDS011;58464;52.298;4.852;2023-04-06T01:00:33;16.77;;;8.57;;
70838;SDS011;58464;52.298;4.852;2023-04-06T01:02:58;17.02;;;8.60;;
70838;SDS011;58464;52.298;4.852;2023-04-06T01:05:24;15.10;;;8.00;;
70838;SDS011;58464;52.298;4.852;2023-04-06T01:07:49;11.38;;;6.90;;
70838;SDS011;58464;52.298;4.852;2023-04-06T01:10:25;13.83;;;8.27;;
70838;SDS011;58464;52.298;4.852;2023-04-06T01:12:51;12.93;;;7.30;;
70838;SDS011;58464;52.298;4.852;2023-04-06T01:15:16;13.85;;;7.75;;
70838;SDS011;58464;52.298;4.852;2023-04-06T01:17:41;16.55;;;8.27;;
70838;SDS011;58464;52.298;4.852;2023-04-06T01:20:07;12.47;;;7.47;;
70838;SDS011;58464;52.298;4.852;2023-04-06T01:22:32;12.27;;;7.22;;
70838;SDS011;58464;52.298;4.852;2023-04-06T01:24:58;15.32;;;7.40;;
70838;SDS011;58464;52.298;4.852;2023-04-06T01:27:23;15.45;;;8.23;;
70838;SDS011;58464;52.298;4.852;2023-04-06T01:29:51;15.00;;;7.72;;
70838;SDS011;58464;52.298;4.852;2023-04-06T01:32:16;13.10;;;7.50;;
70838;SDS011;58464;52.298;4.852;2023-04-06T01:34:43;13.10;;;7.88;;
70838;SDS011;58464;52.298;4.852;2023-04-06T01:37:08;17.35;;;7.68;;
70838;SDS011;58464;52.298;4.852;2023-04-06T01:39:33;13.27;;;7.03;;
70838;SDS011;58464;52.298;4.852;2023-04-06T01:41:58;14.37;;;8.00;;
70838;SDS011;58464;52.298;4.852;2023-04-06T01:44:23;17.73;;;7.67;;
70838;SDS011;58464;52.298;4.852;2023-04-06T01:46:49;14.18;;;7.22;;
70838;SDS011;58464;52.298;4.852;2023-04-06T01:49:14;12.07;;;6.93;;
70838;SDS011;58464;52.298;4.852;2023-04-06T01:51:39;13.60;;;8.38;;
70838;SDS011;58464;52.298;4.852;2023-04-06T01:54:06;13.65;;;7.28;;
70838;SDS011;58464;52.298;4.852;2023-04-06T01:56:31;16.25;;;7.00;;
70838;SDS011;58464;52.298;4.852;2023-04-06T01:58:56;14.60;;;7.07;;
70838;SDS011;58464;52.298;4.852;2023-04-06T02:01:22;17.13;;;7.07;;
70838;SDS011;58464;52.298;4.852;2023-04-06T02:03:47;17.05;;;6.88;;
70838;SDS011;58464;52.298;4.852;2023-04-06T02:06:12;16.23;;;7.38;;
70838;SDS011;58464;52.298;4.852;2023-04-06T02:08:37;13.37;;;6.70;;
70838;SDS011;58464;52.298;4.852;2023-04-06T02:11:03;16.57;;;6.83;;
70838;SDS011;58464;52.298;4.852;2023-04-06T02:13:28;12.83;;;7.27;;
70838;SDS011;58464;52.298;4.852;2023-04-06T02:15:53;15.05;;;6.47;;
70838;SDS011;58464;52.298;4.852;2023-04-06T02:18:18;10.93;;;6.50;;
70838;SDS011;58464;52.298;4.852;2023-04-06T02:20:44;12.47;;;6.50;;
70838;SDS011;58464;52.298;4.852;2023-04-06T02:23:09;13.35;;;7.32;;
70838;SDS011;58464;52.298;4.852;2023-04-06T02:25:35;12.55;;;6.68;;
70838;SDS011;58464;52.298;4.852;2023-04-06T02:28:00;10.48;;;6.75;;
70838;SDS011;58464;52.298;4.852;2023-04-06T02:30:25;15.80;;;6.93;;
70838;SDS011;58464;52.298;4.852;2023-04-06T02:32:51;9.30;;;6.47;;
70838;SDS011;58464;52.298;4.852;2023-04-06T02:35:16;12.00;;;6.70;;
70838;SDS011;58464;52.298;4.852;2023-04-06T02:37:41;12.33;;;6.90;;
70838;SDS011;58464;52.298;4.852;2023-04-06T02:40:07;12.33;;;7.10;;
70838;SDS011;58464;52.298;4.852;2023-04-06T02:42:32;13.80;;;7.10;;
70838;SDS011;58464;52.298;4.852;2023-04-06T02:44:57;14.18;;;7.43;;
70838;SDS011;58464;52.298;4.852;2023-04-06T02:47:24;19.37;;;6.87;;
70838;SDS011;58464;52.298;4.852;2023-04-06T02:49:49;11.50;;;6.70;;
70838;SDS011;58464;52.298;4.852;2023-04-06T02:52:14;11.88;;;6.75;;
70838;SDS011;58464;52.298;4.852;2023-04-06T02:54:40;13.20;;;7.32;;
70838;SDS011;58464;52.298;4.852;2023-04-06T02:57:05;13.83;;;7.23;;
70838;SDS011;58464;52.298;4.852;2023-04-06T02:59:30;15.05;;;6.50;;
70838;SDS011;58464;52.298;4.852;2023-04-06T03:01:56;9.70;;;6.60;;
70838;SDS011;58464;52.298;4.852;2023-04-06T03:04:21;13.60;;;6.63;;
70838;SDS011;58464;52.298;4.852;2023-04-06T03:06:50;9.88;;;6.30;;
70838;SDS011;58464;52.298;4.852;2023-04-06T03:09:15;10.85;;;6.70;;
70838;SDS011;58464;52.298;4.852;2023-04-06T03:11:40;14.43;;;7.03;;
70838;SDS011;58464;52.298;4.852;2023-04-06T03:14:06;12.67;;;7.13;;
70838;SDS011;58464;52.298;4.852;2023-04-06T03:16:31;17.70;;;6.90;;
70838;SDS011;58464;52.298;4.852;2023-04-06T03:18:56;17.20;;;6.67;;
70838;SDS011;58464;52.298;4.852;2023-04-06T03:21:21;16.13;;;6.38;;
70838;SDS011;58464;52.298;4.852;2023-04-06T03:23:46;11.63;;;6.57;;
70838;SDS011;58464;52.298;4.852;2023-04-06T03:26:14;17.75;;;7.03;;
70838;SDS011;58464;52.298;4.852;2023-04-06T03:28:40;13.35;;;6.53;;
70838;SDS011;58464;52.298;4.852;2023-04-06T03:31:05;13.35;;;6.47;;
70838;SDS011;58464;52.298;4.852;2023-04-06T03:33:30;13.17;;;6.73;;
70838;SDS011;58464;52.298;4.852;2023-04-06T03:35:55;11.17;;;6.50;;
70838;SDS011;58464;52.298;4.852;2023-04-06T03:38:21;14.35;;;7.00;;
70838;SDS011;58464;52.298;4.852;2023-04-06T03:40:46;14.03;;;7.20;;
70838;SDS011;58464;52.298;4.852;2023-04-06T03:43:11;12.57;;;7.10;;
70838;SDS011;58464;52.298;4.852;2023-04-06T03:45:37;15.27;;;7.18;;
70838;SDS011;58464;52.298;4.852;2023-04-06T03:48:02;11.70;;;7.10;;
70838;SDS011;58464;52.298;4.852;2023-04-06T03:50:27;12.82;;;6.55;;
70838;SDS011;58464;52.298;4.852;2023-04-06T03:52:52;16.73;;;7.53;;
70838;SDS011;58464;52.298;4.852;2023-04-06T03:55:18;14.68;;;7.50;;
70838;SDS011;58464;52.298;4.852;2023-04-06T03:57:43;13.17;;;7.87;;
70838;SDS011;58464;52.298;4.852;2023-04-06T04:00:08;14.67;;;7.10;;
70838;SDS011;58464;52.298;4.852;2023-04-06T04:02:34;13.70;;;7.22;;
70838;SDS011;58464;52.298;4.852;2023-04-06T04:04:59;13.20;;;7.30;;
70838;SDS011;58464;52.298;4.852;2023-04-06T04:07:24;18.80;;;7.97;;
70838;SDS011;58464;52.298;4.852;2023-04-06T04:09:50;14.07;;;7.53;;
70838;SDS011;58464;52.298;4.852;2023-04-06T04:12:15;15.60;;;7.90;;
70838;SDS011;58464;52.298;4.852;2023-04-06T04:14:41;15.25;;;7.80;;
70838;SDS011;58464;52.298;4.852;2023-04-06T04:17:06;27.70;;;8.27;;
70838;SDS011;58464;52.298;4.852;2023-04-06T04:19:32;14.87;;;7.57;;
70838;SDS011;58464;52.298;4.852;2023-04-06T04:21:57;16.80;;;8.30;;
70838;SDS011;58464;52.298;4.852;2023-04-06T04:24:22;15.50;;;8.33;;
70838;SDS011;58464;52.298;4.852;2023-04-06T04:26:47;14.27;;;7.83;;
70838;SDS011;58464;52.298;4.852;2023-04-06T04:29:13;14.57;;;7.60;;
70838;SDS011;58464;52.298;4.852;2023-04-06T04:31:38;15.77;;;8.50;;
70838;SDS011;58464;52.298;4.852;2023-04-06T04:34:03;14.13;;;8.23;;
70838;SDS011;58464;52.298;4.852;2023-04-06T04:36:29;16.25;;;8.60;;
70838;SDS011;58464;52.298;4.852;2023-04-06T04:38:54;16.60;;;8.93;;
70838;SDS011;58464;52.298;4.852;2023-04-06T04:41:19;18.55;;;9.15;;
70838;SDS011;58464;52.298;4.852;2023-04-06T04:43:45;14.53;;;8.50;;
70838;SDS011;58464;52.298;4.852;2023-04-06T04:46:10;16.88;;;9.05;;
70838;SDS011;58464;52.298;4.852;2023-04-06T04:48:35;17.80;;;9.57;;
70838;SDS011;58464;52.298;4.852;2023-04-06T04:51:01;18.13;;;9.30;;
70838;SDS011;58464;52.298;4.852;2023-04-06T04:53:26;17.08;;;8.68;;
70838;SDS011;58464;52.298;4.852;2023-04-06T04:55:51;20.07;;;9.33;;
70838;SDS011;58464;52.298;4.852;2023-04-06T04:58:17;21.97;;;9.33;;
70838;SDS011;58464;52.298;4.852;2023-04-06T05:00:43;19.65;;;9.23;;
70838;SDS011;58464;52.298;4.852;2023-04-06T05:03:09;16.35;;;9.80;;
70838;SDS011;58464;52.298;4.852;2023-04-06T05:05:38;17.60;;;9.10;;
70838;SDS011;58464;52.298;4.852;2023-04-06T05:08:04;18.15;;;9.48;;
70838;SDS011;58464;52.298;4.852;2023-04-06T05:10:29;21.10;;;10.23;;
70838;SDS011;58464;52.298;4.852;2023-04-06T05:12:54;21.38;;;10.00;;
70838;SDS011;58464;52.298;4.852;2023-04-06T05:15:20;17.55;;;9.35;;
70838;SDS011;58464;52.298;4.852;2023-04-06T05:17:45;19.65;;;8.95;;
70838;SDS011;58464;52.298;4.852;2023-04-06T05:20:10;18.40;;;9.95;;
70838;SDS011;58464;52.298;4.852;2023-04-06T05:22:36;21.27;;;10.32;;
70838;SDS011;58464;52.298;4.852;2023-04-06T05:25:01;19.98;;;9.98;;
70838;SDS011;58464;52.298;4.852;2023-04-06T05:27:27;20.05;;;10.38;;
70838;SDS011;58464;52.298;4.852;2023-04-06T05:29:52;22.23;;;10.23;;
70838;SDS011;58464;52.298;4.852;2023-04-06T05:32:18;18.83;;;10.23;;
70838;SDS011;58464;52.298;4.852;2023-04-06T05:34:48;20.05;;;10.25;;
70838;SDS011;58464;52.298;4.852;2023-04-06T05:37:14;22.48;;;9.73;;
70838;SDS011;58464;52.298;4.852;2023-04-06T05:39:40;21.90;;;11.70;;
70838;SDS011;58464;52.298;4.852;2023-04-06T05:42:05;21.20;;;11.07;;
70838;SDS011;58464;52.298;4.852;2023-04-06T05:44:31;19.92;;;10.55;;
70838;SDS011;58464;52.298;4.852;2023-04-06T05:46:56;18.40;;;11.07;;
70838;SDS011;58464;52.298;4.852;2023-04-06T05:49:21;27.83;;;11.30;;
70838;SDS011;58464;52.298;4.852;2023-04-06T05:51:47;20.10;;;10.23;;
70838;SDS011;58464;52.298;4.852;2023-04-06T05:54:12;26.47;;;10.33;;
70838;SDS011;58464;52.298;4.852;2023-04-06T05:56:37;24.13;;;11.97;;
70838;SDS011;58464;52.298;4.852;2023-04-06T05:59:02;21.87;;;10.13;;
70838;SDS011;58464;52.298;4.852;2023-04-06T06:01:27;22.20;;;10.80;;
70838;SDS011;58464;52.298;4.852;2023-04-06T06:03:54;29.00;;;11.00;;
70838;SDS011;58464;52.298;4.852;2023-04-06T06:06:19;25.23;;;11.20;;
70838;SDS011;58464;52.298;4.852;2023-04-06T06:08:44;26.60;;;11.27;;
70838;SDS011;58464;52.298;4.852;2023-04-06T06:11:09;19.77;;;10.82;;
70838;SDS011;58464;52.298;4.852;2023-04-06T06:13:35;22.83;;;11.57;;
70838;SDS011;58464;52.298;4.852;2023-04-06T06:16:00;25.67;;;11.17;;
70838;SDS011;58464;52.298;4.852;2023-04-06T06:18:25;24.10;;;12.25;;
70838;SDS011;58464;52.298;4.852;2023-04-06T06:20:50;24.45;;;11.65;;
70838;SDS011;58464;52.298;4.852;2023-04-06T06:23:16;20.75;;;12.35;;
70838;SDS011;58464;52.298;4.852;2023-04-06T06:25:41;22.77;;;11.73;;
70838;SDS011;58464;52.298;4.852;2023-04-06T06:28:06;24.38;;;11.25;;
70838;SDS011;58464;52.298;4.852;2023-04-06T06:30:31;26.53;;;11.37;;
70838;SDS011;58464;52.298;4.852;2023-04-06T06:32:57;23.05;;;11.88;;
70838;SDS011;58464;52.298;4.852;2023-04-06T06:35:22;21.77;;;12.52;;
70838;SDS011;58464;52.298;4.852;2023-04-06T06:37:47;22.03;;;12.20;;
70838;SDS011;58464;52.298;4.852;2023-04-06T06:40:12;20.85;;;11.95;;
70838;SDS011;58464;52.298;4.852;2023-04-06T06:42:38;25.92;;;13.13;;
70838;SDS011;58464;52.298;4.852;2023-04-06T06:45:03;21.48;;;12.73;;
70838;SDS011;58464;52.298;4.852;2023-04-06T06:47:29;24.63;;;12.77;;
70838;SDS011;58464;52.298;4.852;2023-04-06T06:49:54;20.80;;;11.73;;
70838;SDS011;58464;52.298;4.852;2023-04-06T06:52:19;24.90;;;12.48;;
70838;SDS011;58464;52.298;4.852;2023-04-06T06:54:45;24.65;;;12.85;;
70838;SDS011;58464;52.298;4.852;2023-04-06T06:57:10;23.65;;;12.88;;
70838;SDS011;58464;52.298;4.852;2023-04-06T06:59:35;23.75;;;12.95;;
70838;SDS011;58464;52.298;4.852;2023-04-06T07:02:00;19.97;;;12.40;;
70838;SDS011;58464;52.298;4.852;2023-04-06T07:04:26;26.50;;;13.40;;
70838;SDS011;58464;52.298;4.852;2023-04-06T07:06:51;23.47;;;12.77;;
70838;SDS011;58464;52.298;4.852;2023-04-06T07:09:17;22.70;;;13.02;;
70838;SDS011;58464;52.298;4.852;2023-04-06T07:11:42;24.00;;;13.80;;
70838;SDS011;58464;52.298;4.852;2023-04-06T07:14:08;25.67;;;13.93;;
70838;SDS011;58464;52.298;4.852;2023-04-06T07:16:36;23.93;;;13.80;;
70838;SDS011;58464;52.298;4.852;2023-04-06T07:19:01;26.73;;;12.88;;
70838;SDS011;58464;52.298;4.852;2023-04-06T07:21:26;24.17;;;14.03;;
70838;SDS011;58464;52.298;4.852;2023-04-06T07:23:52;19.57;;;12.87;;
70838;SDS011;58464;52.298;4.852;2023-04-06T07:26:18;25.05;;;13.70;;
70838;SDS011;58464;52.298;4.852;2023-04-06T07:28:43;33.45;;;14.82;;
70838;SDS011;58464;52.298;4.852;2023-04-06T07:31:09;27.13;;;14.53;;
70838;SDS011;58464;52.298;4.852;2023-04-06T07:33:34;26.00;;;14.23;;
70838;SDS011;58464;52.298;4.852;2023-04-06T07:35:59;24.63;;;14.00;;
70838;SDS011;58464;52.298;4.852;2023-04-06T07:38:24;28.63;;;15.00;;
70838;SDS011;58464;52.298;4.852;2023-04-06T07:40:50;24.00;;;14.02;;
70838;SDS011;58464;52.298;4.852;2023-04-06T07:43:15;24.90;;;14.50;;
70838;SDS011;58464;52.298;4.852;2023-04-06T07:45:41;33.63;;;16.30;;
70838;SDS011;58464;52.298;4.852;2023-04-06T07:48:07;35.33;;;15.25;;
70838;SDS011;58464;52.298;4.852;2023-04-06T07:50:32;29.07;;;13.73;;
70838;SDS011;58464;52.298;4.852;2023-04-06T07:52:57;44.97;;;15.25;;
70838;SDS011;58464;52.298;4.852;2023-04-06T07:55:23;37.58;;;20.48;;
70838;SDS011;58464;52.298;4.852;2023-04-06T07:57:48;32.65;;;17.55;;
70838;SDS011;58464;52.298;4.852;2023-04-06T08:00:13;31.00;;;15.83;;
70838;SDS011;58464;52.298;4.852;2023-04-06T08:02:39;32.60;;;16.42;;
70838;SDS011;58464;52.298;4.852;2023-04-06T08:05:04;29.70;;;14.90;;
70838;SDS011;58464;52.298;4.852;2023-04-06T08:07:30;31.80;;;15.18;;
70838;SDS011;58464;52.298;4.852;2023-04-06T08:09:56;28.20;;;14.82;;
70838;SDS011;58464;52.298;4.852;2023-04-06T08:12:21;26.93;;;15.20;;
70838;SDS011;58464;52.298;4.852;2023-04-06T08:14:47;41.07;;;14.63;;
70838;SDS011;58464;52.298;4.852;2023-04-06T08:17:12;29.80;;;15.55;;
70838;SDS011;58464;52.298;4.852;2023-04-06T08:19:37;30.27;;;15.60;;
70838;SDS011;58464;52.298;4.852;2023-04-06T08:22:03;34.90;;;14.97;;
70838;SDS011;58464;52.298;4.852;2023-04-06T08:24:28;28.52;;;15.95;;
70838;SDS011;58464;52.298;4.852;2023-04-06T08:26:53;27.17;;;16.00;;
70838;SDS011;58464;52.298;4.852;2023-04-06T08:29:19;25.70;;;15.20;;
70838;SDS011;58464;52.298;4.852;2023-04-06T08:31:46;25.55;;;14.77;;
70838;SDS011;58464;52.298;4.852;2023-04-06T08:34:11;29.90;;;14.90;;
70838;SDS011;58464;52.298;4.852;2023-04-06T08:36:36;28.80;;;14.68;;
70838;SDS011;58464;52.298;4.852;2023-04-06T08:39:02;28.52;;;15.10;;
70838;SDS011;58464;52.298;4.852;2023-04-06T08:41:27;27.30;;;15.05;;
70838;SDS011;58464;52.298;4.852;2023-04-06T08:43:56;25.17;;;15.20;;
70838;SDS011;58464;52.298;4.852;2023-04-06T08:46:21;28.13;;;16.15;;
70838;SDS011;58464;52.298;4.852;2023-04-06T08:48:49;27.52;;;15.23;;
70838;SDS011;58464;52.298;4.852;2023-04-06T08:51:15;27.60;;;15.13;;
70838;SDS011;58464;52.298;4.852;2023-04-06T08:53:40;25.20;;;15.35;;
70838;SDS011;58464;52.298;4.852;2023-04-06T08:56:05;33.65;;;14.68;;
70838;SDS011;58464;52.298;4.852;2023-04-06T08:58:35;37.80;;;15.25;;
70838;SDS011;58464;52.298;4.852;2023-04-06T09:01:02;26.15;;;14.73;;
70838;SDS011;58464;52.298;4.852;2023-04-06T09:03:30;26.88;;;16.05;;
70838;SDS011;58464;52.298;4.852;2023-04-06T09:05:57;25.55;;;15.10;;
70838;SDS011;58464;52.298;4.852;2023-04-06T09:08:23;27.85;;;15.50;;
70838;SDS011;58464;52.298;4.852;2023-04-06T09:10:48;33.97;;;16.52;;
70838;SDS011;58464;52.298;4.852;2023-04-06T09:13:14;26.80;;;15.45;;
70838;SDS011;58464;52.298;4.852;2023-04-06T09:15:39;24.30;;;15.48;;
70838;SDS011;58464;52.298;4.852;2023-04-06T09:18:05;29.63;;;15.88;;
70838;SDS011;58464;52.298;4.852;2023-04-06T09:20:30;32.40;;;16.73;;
70838;SDS011;58464;52.298;4.852;2023-04-06T09:22:56;27.08;;;15.88;;
70838;SDS011;58464;52.298;4.852;2023-04-06T09:25:22;25.63;;;16.48;;
70838;SDS011;58464;52.298;4.852;2023-04-06T09:27:57;30.17;;;15.73;;
70838;SDS011;58464;52.298;4.852;2023-04-06T09:30:23;28.35;;;16.48;;
70838;SDS011;58464;52.298;4.852;2023-04-06T09:32:50;27.75;;;15.68;;
70838;SDS011;58464;52.298;4.852;2023-04-06T09:35:16;32.47;;;16.05;;
70838;SDS011;58464;52.298;4.852;2023-04-06T09:37:42;27.05;;;15.68;;
70838;SDS011;58464;52.298;4.852;2023-04-06T09:40:07;28.58;;;15.50;;
70838;SDS011;58464;52.298;4.852;2023-04-06T09:42:33;24.95;;;14.57;;
70838;SDS011;58464;52.298;4.852;2023-04-06T09:44:59;32.25;;;15.25;;
70838;SDS011;58464;52.298;4.852;2023-04-06T09:47:25;26.67;;;15.35;;
70838;SDS011;58464;52.298;4.852;2023-04-06T09:49:52;36.28;;;17.48;;
70838;SDS011;58464;52.298;4.852;2023-04-06T09:52:19;26.42;;;15.85;;
70838;SDS011;58464;52.298;4.852;2023-04-06T09:54:46;27.85;;;15.93;;
70838;SDS011;58464;52.298;4.852;2023-04-06T09:57:17;23.73;;;14.85;;
70838;SDS011;58464;52.298;4.852;2023-04-06T10:02:58;32.55;;;17.05;;
70838;SDS011;58464;52.298;4.852;2023-04-06T10:05:05;30.38;;;15.40;;
70838;SDS011;58464;52.298;4.852;2023-04-06T10:07:33;27.92;;;15.75;;
70838;SDS011;58464;52.298;4.852;2023-04-06T10:09:58;30.05;;;15.48;;
70838;SDS011;58464;52.298;4.852;2023-04-06T10:12:24;23.88;;;14.30;;
70838;SDS011;58464;52.298;4.852;2023-04-06T10:14:49;24.75;;;12.57;;
70838;SDS011;58464;52.298;4.852;2023-04-06T10:17:15;23.88;;;13.70;;
70838;SDS011;58464;52.298;4.852;2023-04-06T10:19:52;29.27;;;13.77;;
70838;SDS011;58464;52.298;4.852;2023-04-06T10:22:22;30.67;;;14.57;;
70838;SDS011;58464;52.298;4.852;2023-04-06T10:24:49;27.60;;;14.82;;
70838;SDS011;58464;52.298;4.852;2023-04-06T10:27:14;25.57;;;13.60;;
70838;SDS011;58464;52.298;4.852;2023-04-06T10:29:44;22.48;;;13.77;;
70838;SDS011;58464;52.298;4.852;2023-04-06T10:32:10;26.13;;;13.23;;
70838;SDS011;58464;52.298;4.852;2023-04-06T10:34:36;25.42;;;13.55;;
70838;SDS011;58464;52.298;4.852;2023-04-06T10:37:22;22.17;;;11.82;;
70838;SDS011;58464;52.298;4.852;2023-04-06T10:39:47;22.40;;;12.52;;
70838;SDS011;58464;52.298;4.852;2023-04-06T10:42:13;23.42;;;13.13;;
70838;SDS011;58464;52.298;4.852;2023-04-06T10:44:42;24.13;;;11.65;;
70838;SDS011;58464;52.298;4.852;2023-04-06T10:47:15;22.25;;;12.65;;
70838;SDS011;58464;52.298;4.852;2023-04-06T10:49:40;24.50;;;12.75;;
70838;SDS011;58464;52.298;4.852;2023-04-06T10:52:05;22.83;;;12.33;;
70838;SDS011;58464;52.298;4.852;2023-04-06T10:54:31;27.17;;;13.07;;
70838;SDS011;58464;52.298;4.852;2023-04-06T10:56:58;26.75;;;12.05;;
70838;SDS011;58464;52.298;4.852;2023-04-06T10:59:23;20.45;;;12.20;;
70838;SDS011;58464;52.298;4.852;2023-04-06T11:01:50;20.33;;;10.93;;
70838;SDS011;58464;52.298;4.852;2023-04-06T11:04:19;19.85;;;12.10;;
70838;SDS011;58464;52.298;4.852;2023-04-06T11:06:48;19.05;;;11.30;;
70838;SDS011;58464;52.298;4.852;2023-04-06T11:09:31;24.35;;;13.15;;
70838;SDS011;58464;52.298;4.852;2023-04-06T11:11:57;43.63;;;22.60;;
70838;SDS011;58464;52.298;4.852;2023-04-06T11:14:22;21.25;;;12.30;;
70838;SDS011;58464;52.298;4.852;2023-04-06T11:16:47;79.13;;;29.52;;
70838;SDS011;58464;52.298;4.852;2023-04-06T11:19:16;20.15;;;11.30;;
70838;SDS011;58464;52.298;4.852;2023-04-06T11:24:13;15.25;;;8.25;;
70838;SDS011;58464;52.298;4.852;2023-04-06T11:26:49;15.57;;;8.73;;
70838;SDS011;58464;52.298;4.852;2023-04-06T11:29:18;12.57;;;8.20;;
70838;SDS011;58464;52.298;4.852;2023-04-06T11:31:54;12.57;;;7.93;;
70838;SDS011;58464;52.298;4.852;2023-04-06T11:34:23;16.58;;;6.88;;
70838;SDS011;58464;52.298;4.852;2023-04-06T11:36:49;11.98;;;6.97;;
70838;SDS011;58464;52.298;4.852;2023-04-06T11:39:18;11.38;;;7.20;;
70838;SDS011;58464;52.298;4.852;2023-04-06T11:41:48;12.68;;;6.93;;
70838;SDS011;58464;52.298;4.852;2023-04-06T11:44:13;10.82;;;7.10;;
70838;SDS011;58464;52.298;4.852;2023-04-06T11:46:39;11.48;;;7.20;;
70838;SDS011;58464;52.298;4.852;2023-04-06T11:49:04;11.38;;;6.90;;
70838;SDS011;58464;52.298;4.852;2023-04-06T11:51:29;12.27;;;6.93;;
70838;SDS011;58464;52.298;4.852;2023-04-06T11:53:55;11.27;;;6.07;;
70838;SDS011;58464;52.298;4.852;2023-04-06T11:56:28;8.60;;;6.15;;
70838;SDS011;58464;52.298;4.852;2023-04-06T11:58:54;11.63;;;6.30;;
70838;SDS011;58464;52.298;4.852;2023-04-06T12:01:19;8.75;;;6.10;;
70838;SDS011;58464;52.298;4.852;2023-04-06T12:03:44;10.88;;;6.22;;
70838;SDS011;58464;52.298;4.852;2023-04-06T12:06:10;13.23;;;7.10;;
70838;SDS011;58464;52.298;4.852;2023-04-06T12:08:36;12.13;;;6.85;;
70838;SDS011;58464;52.298;4.852;2023-04-06T12:11:01;10.13;;;6.40;;
70838;SDS011;58464;52.298;4.852;2023-04-06T12:13:27;12.30;;;6.47;;
70838;SDS011;58464;52.298;4.852;2023-04-06T12:15:52;8.80;;;5.97;;
70838;SDS011;58464;52.298;4.852;2023-04-06T12:18:17;11.60;;;6.15;;
70838;SDS011;58464;52.298;4.852;2023-04-06T12:20:43;11.65;;;6.78;;
70838;SDS011;58464;52.298;4.852;2023-04-06T12:23:08;9.60;;;5.78;;
70838;SDS011;58464;52.298;4.852;2023-04-06T12:25:33;11.00;;;6.13;;
70838;SDS011;58464;52.298;4.852;2023-04-06T12:27:59;8.43;;;6.07;;
70838;SDS011;58464;52.298;4.852;2023-04-06T12:30:24;10.32;;;6.20;;
70838;SDS011;58464;52.298;4.852;2023-04-06T12:32:50;15.48;;;7.25;;
70838;SDS011;58464;52.298;4.852;2023-04-06T12:35:15;10.27;;;6.43;;
70838;SDS011;58464;52.298;4.852;2023-04-06T12:37:41;10.10;;;6.90;;
70838;SDS011;58464;52.298;4.852;2023-04-06T12:40:07;11.18;;;6.68;;
70838;SDS011;58464;52.298;4.852;2023-04-06T12:42:32;11.27;;;6.40;;
70838;SDS011;58464;52.298;4.852;2023-04-06T12:44:57;9.77;;;6.07;;
70838;SDS011;58464;52.298;4.852;2023-04-06T12:47:23;12.73;;;6.90;;
70838;SDS011;58464;52.298;4.852;2023-04-06T12:49:51;9.48;;;6.53;;
70838;SDS011;58464;52.298;4.852;2023-04-06T12:52:16;11.97;;;7.83;;
70838;SDS011;58464;52.298;4.852;2023-04-06T12:54:41;10.23;;;6.30;;
70838;SDS011;58464;52.298;4.852;2023-04-06T12:57:06;13.97;;;6.10;;
70838;SDS011;58464;52.298;4.852;2023-04-06T12:59:32;10.07;;;6.60;;
70838;SDS011;58464;52.298;4.852;2023-04-06T13:02:00;9.38;;;6.90;;
70838;SDS011;58464;52.298;4.852;2023-04-06T13:04:25;11.75;;;6.85;;
70838;SDS011;58464;52.298;4.852;2023-04-06T13:06:51;12.95;;;6.43;;
70838;SDS011;58464;52.298;4.852;2023-04-06T13:09:16;10.40;;;7.05;;
70838;SDS011;58464;52.298;4.852;2023-04-06T13:11:41;8.80;;;6.50;;
70838;SDS011;58464;52.298;4.852;2023-04-06T13:14:07;12.20;;;7.07;;
70838;SDS011;58464;52.298;4.852;2023-04-06T13:16:32;8.87;;;6.40;;
70838;SDS011;58464;52.298;4.852;2023-04-06T13:18:57;11.57;;;6.95;;
70838;SDS011;58464;52.298;4.852;2023-04-06T13:21:23;13.15;;;6.95;;
70838;SDS011;58464;52.298;4.852;2023-04-06T13:23:48;15.10;;;7.45;;
70838;SDS011;58464;52.298;4.852;2023-04-06T13:26:13;11.50;;;7.20;;
70838;SDS011;58464;52.298;4.852;2023-04-06T13:28:40;14.18;;;7.78;;
70838;SDS011;58464;52.298;4.852;2023-04-06T13:31:06;13.35;;;8.23;;
70838;SDS011;58464;52.298;4.852;2023-04-06T13:33:31;9.90;;;6.43;;
70838;SDS011;58464;52.298;4.852;2023-04-06T13:35:58;12.93;;;7.78;;
70838;SDS011;58464;52.298;4.852;2023-04-06T13:38:23;11.23;;;6.53;;
70838;SDS011;58464;52.298;4.852;2023-04-06T13:40:51;12.77;;;7.40;;
70838;SDS011;58464;52.298;4.852;2023-04-06T13:43:16;14.70;;;8.10;;
70838;SDS011;58464;52.298;4.852;2023-04-06T13:45:51;11.95;;;7.13;;
70838;SDS011;58464;52.298;4.852;2023-04-06T13:48:17;10.60;;;7.03;;
70838;SDS011;58464;52.298;4.852;2023-04-06T13:50:42;14.35;;;7.82;;
70838;SDS011;58464;52.298;4.852;2023-04-06T13:53:07;19.17;;;8.50;;
70838;SDS011;58464;52.298;4.852;2023-04-06T13:55:34;14.43;;;7.47;;
70838;SDS011;58464;52.298;4.852;2023-04-06T13:57:59;13.15;;;8.27;;
70838;SDS011;58464;52.298;4.852;2023-04-06T14:00:24;11.43;;;7.60;;
70838;SDS011;58464;52.298;4.852;2023-04-06T14:02:50;12.50;;;7.75;;
70838;SDS011;58464;52.298;4.852;2023-04-06T14:05:15;11.77;;;7.75;;
70838;SDS011;58464;52.298;4.852;2023-04-06T14:07:41;11.10;;;7.18;;
70838;SDS011;58464;52.298;4.852;2023-04-06T14:10:06;12.38;;;7.82;;
70838;SDS011;58464;52.298;4.852;2023-04-06T14:12:38;11.77;;;7.20;;
70838;SDS011;58464;52.298;4.852;2023-04-06T14:15:03;12.98;;;8.68;;
70838;SDS011;58464;52.298;4.852;2023-04-06T14:17:29;17.70;;;8.40;;
70838;SDS011;58464;52.298;4.852;2023-04-06T14:19:54;13.57;;;8.48;;
70838;SDS011;58464;52.298;4.852;2023-04-06T14:22:20;14.68;;;8.15;;
70838;SDS011;58464;52.298;4.852;2023-04-06T14:24:45;12.63;;;8.60;;